Time;durP1;ratioP1;P1;durP2;ratioP2;P2;SDS_P1;SDS_P2;PMS_P1;PMS_P2;Temp;Humidity;BMP_temperature;BMP_pressure;BME280_temperature;BME280_humidity;BME280_pressure;Samples;Min_cycle;Max_cycle;Signal;HPM_P1;HPM_P2
2022/03/23 00:00:18;;;;;;;6.78;6.05;;;;;;;;;;7379323;19;20170;-79
2022/03/23 00:02:48;;;;;;;7.65;5.40;;;;;;;;;;7377986;19;20139;-80
2022/03/23 00:05:18;;;;;;;8.17;5.67;;;;;;;;;;7381881;19;20151;-79
2022/03/23 00:07:48;;;;;;;9.32;6.35;;;;;;;;;;7380189;19;20392;-79
2022/03/23 00:10:20;;;;;;;7.65;5.93;;;;;;;;;;7378404;19;20136;-79
2022/03/23 00:12:51;;;;;;;9.77;6.85;;;;;;;;;;7384751;19;20804;-79
2022/03/23 00:15:23;;;;;;;8.77;5.85;;;;;;;;;;7376798;19;20135;-80
2022/03/23 00:17:53;;;;;;;7.70;6.35;;;;;;;;;;7379451;19;20142;-79
2022/03/23 00:20:23;;;;;;;7.63;5.90;;;;;;;;;;7378026;19;20139;-80
2022/03/23 00:22:52;;;;;;;7.95;6.10;;;;;;;;;;7380224;19;20669;-78
2022/03/23 00:25:25;;;;;;;12.40;7.15;;;;;;;;;;7379128;19;20163;-78
2022/03/23 00:27:55;;;;;;;14.75;8.48;;;;;;;;;;7378951;19;20918;-78
2022/03/23 00:30:24;;;;;;;8.55;6.40;;;;;;;;;;7373323;19;20608;-79
2022/03/23 00:32:55;;;;;;;13.10;7.38;;;;;;;;;;7373271;19;20154;-78
2022/03/23 00:35:25;;;;;;;11.57;7.25;;;;;;;;;;7379630;19;20139;-78
2022/03/23 00:37:58;;;;;;;12.20;7.40;;;;;;;;;;7378858;19;20229;-78
2022/03/23 00:40:31;;;;;;;9.38;6.40;;;;;;;;;;7378171;19;20134;-79
2022/03/23 00:43:01;;;;;;;8.38;6.38;;;;;;;;;;7370161;19;20139;-80
2022/03/23 00:45:31;;;;;;;8.00;5.40;;;;;;;;;;7374149;19;20773;-80
2022/03/23 00:48:02;;;;;;;8.77;5.65;;;;;;;;;;7373788;19;21362;-79
2022/03/23 00:53:47;;;;;;;10.25;6.65;;;;;;;;;;7378725;19;20146;-79
2022/03/23 00:56:19;;;;;;;8.40;5.50;;;;;;;;;;7365296;19;20147;-79
2022/03/23 00:58:49;;;;;;;6.95;5.82;;;;;;;;;;7365618;19;20150;-78
2022/03/23 01:01:19;;;;;;;10.70;6.68;;;;;;;;;;7359390;19;20153;-77
2022/03/23 01:03:48;;;;;;;9.02;6.70;;;;;;;;;;7377383;19;20139;-77
2022/03/23 01:06:18;;;;;;;8.93;6.75;;;;;;;;;;7380775;19;20128;-78
2022/03/23 01:08:48;;;;;;;9.45;6.72;;;;;;;;;;7378927;19;20143;-77
2022/03/23 01:11:21;;;;;;;10.00;6.78;;;;;;;;;;7374649;19;20962;-78
2022/03/23 01:13:50;;;;;;;9.02;6.78;;;;;;;;;;7377508;19;20135;-78
2022/03/23 01:16:20;;;;;;;11.23;7.15;;;;;;;;;;7370242;19;20155;-77
2022/03/23 01:18:50;;;;;;;10.32;6.75;;;;;;;;;;7376568;19;20128;-77
2022/03/23 01:24:27;;;;;;;7.93;7.03;;;;;;;;;;7377549;19;20151;-77
2022/03/23 01:27:00;;;;;;;11.48;7.60;;;;;;;;;;7374879;19;20135;-77
2022/03/23 01:29:35;;;;;;;10.30;7.57;;;;;;;;;;7406891;19;20173;-76
2022/03/23 01:32:05;;;;;;;11.32;7.55;;;;;;;;;;7393539;19;20140;-77
2022/03/23 01:34:37;;;;;;;10.55;7.75;;;;;;;;;;7395130;19;20144;-77
2022/03/23 01:37:07;;;;;;;16.50;8.20;;;;;;;;;;7418402;19;20524;-80
2022/03/23 01:39:38;;;;;;;10.00;7.07;;;;;;;;;;7412173;19;20145;-80
2022/03/23 01:42:10;;;;;;;10.73;8.50;;;;;;;;;;7416461;19;20136;-79
2022/03/23 01:44:39;;;;;;;11.30;8.48;;;;;;;;;;7413120;19;20168;-80
2022/03/23 01:47:10;;;;;;;13.63;9.10;;;;;;;;;;7422457;19;20159;-80
2022/03/23 01:49:41;;;;;;;11.82;8.52;;;;;;;;;;7427702;19;20156;-80
2022/03/23 01:52:12;;;;;;;14.18;9.40;;;;;;;;;;7427956;19;20157;-80
2022/03/23 01:54:43;;;;;;;17.67;9.52;;;;;;;;;;7429415;19;20155;-83
2022/03/23 01:57:16;;;;;;;14.68;9.38;;;;;;;;;;7426702;19;20184;-80
2022/03/23 01:59:47;;;;;;;13.77;9.90;;;;;;;;;;7394366;19;20594;-80
2022/03/23 02:02:17;;;;;;;16.13;11.52;;;;;;;;;;7392116;19;20139;-80
2022/03/23 02:04:58;;;;;;;16.17;10.10;;;;;;;;;;7383859;19;20164;-79
2022/03/23 02:07:27;;;;;;;17.73;10.70;;;;;;;;;;7384560;19;20127;-78
2022/03/23 02:09:59;;;;;;;12.38;9.48;;;;;;;;;;7379370;19;20156;-79
2022/03/23 02:12:43;;;;;;;15.52;9.90;;;;;;;;;;7381211;19;20128;-79
2022/03/23 02:15:16;;;;;;;16.45;10.27;;;;;;;;;;7378193;19;20260;-79
2022/03/23 02:17:46;;;;;;;15.30;10.02;;;;;;;;;;7380274;19;20578;-79
2022/03/23 02:20:16;;;;;;;15.45;10.13;;;;;;;;;;7380414;19;20955;-79
2022/03/23 02:22:49;;;;;;;12.68;8.80;;;;;;;;;;7380661;19;20147;-79
2022/03/23 02:25:22;;;;;;;13.23;10.02;;;;;;;;;;7377447;19;20160;-79
2022/03/23 02:27:52;;;;;;;17.48;10.10;;;;;;;;;;7375891;19;20147;-79
2022/03/23 02:30:22;;;;;;;12.73;9.25;;;;;;;;;;7374611;19;20131;-79
2022/03/23 02:32:52;;;;;;;13.00;10.10;;;;;;;;;;7378751;19;20809;-78
2022/03/23 02:35:21;;;;;;;15.80;12.00;;;;;;;;;;7376688;19;20143;-79
2022/03/23 02:37:54;;;;;;;17.30;9.55;;;;;;;;;;7376834;19;20164;-78
2022/03/23 02:40:23;;;;;;;16.05;10.27;;;;;;;;;;7378649;19;20132;-79
2022/03/23 02:42:54;;;;;;;14.23;10.13;;;;;;;;;;7378435;19;20139;-78
2022/03/23 02:45:23;;;;;;;13.60;9.73;;;;;;;;;;7370084;19;20148;-77
2022/03/23 02:47:53;;;;;;;14.93;9.50;;;;;;;;;;7379467;19;20232;-78
2022/03/23 02:50:22;;;;;;;16.17;9.73;;;;;;;;;;7378293;19;20528;-77
2022/03/23 03:03:59;;;;;;;12.93;9.55;;;;;;;;;;7384253;19;20136;-77
2022/03/23 03:06:28;;;;;;;13.45;10.15;;;;;;;;;;7382878;19;20147;-77
2022/03/23 03:09:00;;;;;;;14.20;9.43;;;;;;;;;;7384468;19;20140;-77
2022/03/23 03:15:04;;;;;;;12.75;9.10;;;;;;;;;;7374474;19;20890;-77
2022/03/23 03:17:34;;;;;;;16.30;10.10;;;;;;;;;;7378297;19;20160;-76
2022/03/23 03:20:04;;;;;;;14.57;10.13;;;;;;;;;;7378586;19;20144;-76
2022/03/23 03:22:36;;;;;;;12.18;9.43;;;;;;;;;;7386204;19;20198;-77
2022/03/23 03:25:09;;;;;;;16.35;9.18;;;;;;;;;;7380134;19;20143;-79
2022/03/23 03:27:40;;;;;;;12.90;8.38;;;;;;;;;;7381793;19;20132;-77
2022/03/23 03:30:11;;;;;;;11.00;8.32;;;;;;;;;;7379582;19;20135;-76
2022/03/23 03:36:15;;;;;;;14.95;8.95;;;;;;;;;;7375728;19;20146;-78
2022/03/23 03:38:46;;;;;;;12.05;9.27;;;;;;;;;;7384667;19;20631;-78
2022/03/23 03:41:18;;;;;;;16.75;9.02;;;;;;;;;;7382832;19;20127;-78
2022/03/23 03:43:50;;;;;;;16.70;9.73;;;;;;;;;;7382029;19;20142;-79
2022/03/23 03:46:19;;;;;;;15.50;10.23;;;;;;;;;;7375615;19;20135;-78
2022/03/23 03:48:49;;;;;;;13.70;9.00;;;;;;;;;;7386545;19;20636;-78
2022/03/23 03:51:18;;;;;;;12.57;9.38;;;;;;;;;;7386201;19;20168;-78
2022/03/23 03:53:48;;;;;;;15.65;10.02;;;;;;;;;;7383200;19;20308;-78
2022/03/23 03:56:20;;;;;;;12.30;9.00;;;;;;;;;;7375095;19;20763;-78
2022/03/23 03:58:53;;;;;;;13.57;8.55;;;;;;;;;;7380285;19;20228;-78
2022/03/23 04:01:22;;;;;;;11.82;9.25;;;;;;;;;;7377620;19;20139;-78
2022/03/23 04:03:54;;;;;;;14.27;9.02;;;;;;;;;;7382408;19;20128;-79
2022/03/23 04:06:24;;;;;;;15.05;10.57;;;;;;;;;;7373648;19;20144;-77
2022/03/23 04:08:53;;;;;;;16.13;9.95;;;;;;;;;;7382364;19;20587;-78
2022/03/23 04:11:26;;;;;;;13.68;9.00;;;;;;;;;;7381960;19;20139;-77
2022/03/23 04:13:55;;;;;;;13.30;9.77;;;;;;;;;;7378877;19;20135;-78
2022/03/23 04:16:25;;;;;;;14.05;10.10;;;;;;;;;;7377029;19;20139;-79
2022/03/23 04:18:54;;;;;;;15.27;9.80;;;;;;;;;;7381668;19;20676;-78
2022/03/23 04:21:24;;;;;;;14.02;10.63;;;;;;;;;;7371371;19;20167;-78
2022/03/23 04:23:53;;;;;;;18.95;11.32;;;;;;;;;;7380616;19;20143;-78
2022/03/23 04:26:26;;;;;;;14.60;9.98;;;;;;;;;;7377417;19;20132;-78
2022/03/23 04:28:55;;;;;;;18.15;10.07;;;;;;;;;;7374760;19;20202;-78
2022/03/23 04:31:25;;;;;;;17.33;9.73;;;;;;;;;;7375160;19;20132;-79
2022/03/23 04:33:54;;;;;;;17.52;11.38;;;;;;;;;;7380640;19;20131;-78
2022/03/23 04:36:24;;;;;;;15.05;11.73;;;;;;;;;;7381443;19;20139;-77
2022/03/23 04:38:54;;;;;;;17.02;9.10;;;;;;;;;;7386570;19;20140;-78
2022/03/23 04:41:26;;;;;;;17.65;9.95;;;;;;;;;;7418241;19;20132;-78
2022/03/23 04:43:55;;;;;;;13.52;10.40;;;;;;;;;;7418361;19;20127;-79
2022/03/23 04:46:25;;;;;;;16.00;10.75;;;;;;;;;;7410176;19;20143;-79
2022/03/23 04:48:54;;;;;;;15.88;10.57;;;;;;;;;;7416066;19;20148;-79
2022/03/23 04:51:24;;;;;;;17.00;10.57;;;;;;;;;;7413423;19;20144;-77
2022/03/23 04:53:53;;;;;;;17.35;10.10;;;;;;;;;;7416402;19;20149;-78
2022/03/23 04:56:25;;;;;;;15.77;11.07;;;;;;;;;;7422093;19;20156;-78
2022/03/23 04:58:56;;;;;;;19.05;12.32;;;;;;;;;;7428734;19;20128;-77
2022/03/23 05:01:25;;;;;;;17.98;11.98;;;;;;;;;;7428224;19;20157;-77
2022/03/23 05:03:57;;;;;;;20.13;10.90;;;;;;;;;;7432732;19;20153;-78
2022/03/23 05:06:26;;;;;;;15.48;10.65;;;;;;;;;;7431635;19;20132;-78
2022/03/23 05:08:56;;;;;;;15.98;10.93;;;;;;;;;;7433513;19;20155;-78
2022/03/23 05:11:28;;;;;;;16.77;10.90;;;;;;;;;;7434145;19;20142;-77
2022/03/23 05:14:01;;;;;;;20.33;11.10;;;;;;;;;;7406118;19;20150;-77
2022/03/23 05:16:31;;;;;;;18.10;11.07;;;;;;;;;;7396078;19;20606;-77
2022/03/23 05:19:03;;;;;;;19.33;11.40;;;;;;;;;;7390724;19;20143;-77
2022/03/23 05:21:32;;;;;;;19.67;11.55;;;;;;;;;;7387717;19;20742;-77
2022/03/23 05:24:02;;;;;;;20.83;12.15;;;;;;;;;;7386577;19;20581;-77
2022/03/23 05:26:34;;;;;;;19.98;11.80;;;;;;;;;;7383267;19;20147;-79
2022/03/23 05:29:04;;;;;;;16.27;11.63;;;;;;;;;;7382047;19;20148;-79
2022/03/23 05:31:34;;;;;;;18.92;11.93;;;;;;;;;;7383731;19;20608;-79
2022/03/23 05:34:04;;;;;;;18.60;12.75;;;;;;;;;;7382924;19;20600;-80
2022/03/23 05:36:35;;;;;;;21.13;13.20;;;;;;;;;;7379166;19;20174;-80
2022/03/23 05:39:05;;;;;;;17.40;13.02;;;;;;;;;;7381629;19;20139;-79
2022/03/23 05:41:38;;;;;;;23.52;11.63;;;;;;;;;;7379745;19;20144;-79
2022/03/23 05:44:08;;;;;;;16.38;10.73;;;;;;;;;;7381379;19;20123;-79
2022/03/23 05:46:37;;;;;;;17.95;11.48;;;;;;;;;;7376750;19;20263;-79
2022/03/23 05:49:07;;;;;;;18.42;12.02;;;;;;;;;;7372181;19;20957;-77
2022/03/23 05:51:37;;;;;;;17.02;11.38;;;;;;;;;;7377067;19;20158;-80
2022/03/23 05:54:07;;;;;;;18.33;11.57;;;;;;;;;;7377494;19;20785;-80
2022/03/23 05:56:39;;;;;;;16.83;11.48;;;;;;;;;;7381502;19;20147;-82
2022/03/23 05:59:11;;;;;;;19.83;12.50;;;;;;;;;;7380777;19;20142;-81
2022/03/23 06:01:40;;;;;;;17.52;11.63;;;;;;;;;;7380303;19;20150;-80
2022/03/23 06:04:12;;;;;;;20.73;11.15;;;;;;;;;;7378516;19;20175;-80
2022/03/23 06:06:42;;;;;;;17.05;12.30;;;;;;;;;;7376143;19;20141;-79
2022/03/23 06:09:12;;;;;;;23.30;15.07;;;;;;;;;;7384381;19;20560;-82
2022/03/23 06:11:44;;;;;;;18.80;12.23;;;;;;;;;;7375573;19;20994;-79
2022/03/23 06:14:14;;;;;;;21.63;13.40;;;;;;;;;;7372974;19;20652;-80
2022/03/23 06:16:46;;;;;;;25.23;13.60;;;;;;;;;;7377186;19;20144;-85
2022/03/23 06:19:15;;;;;;;21.05;13.23;;;;;;;;;;7378558;19;20155;-80
2022/03/23 06:21:45;;;;;;;22.75;12.40;;;;;;;;;;7385723;19;20131;-83
2022/03/23 06:24:15;;;;;;;24.80;14.80;;;;;;;;;;7375236;19;20144;-79
2022/03/23 06:26:49;;;;;;;25.10;14.80;;;;;;;;;;7374787;19;20160;-84
2022/03/23 06:29:19;;;;;;;28.42;15.10;;;;;;;;;;7377584;19;20147;-78
2022/03/23 06:31:48;;;;;;;22.70;14.25;;;;;;;;;;7376662;19;20473;-78
2022/03/23 06:34:18;;;;;;;26.92;15.82;;;;;;;;;;7375695;19;20149;-78
2022/03/23 06:36:47;;;;;;;27.92;15.82;;;;;;;;;;7381163;19;20170;-80
2022/03/23 06:39:17;;;;;;;21.67;14.30;;;;;;;;;;7387032;19;20146;-84
2022/03/23 06:41:52;;;;;;;22.50;14.35;;;;;;;;;;7381033;19;20140;-79
2022/03/23 06:44:21;;;;;;;24.30;14.38;;;;;;;;;;7386519;19;20216;-83
2022/03/23 06:46:51;;;;;;;29.95;14.75;;;;;;;;;;7386116;19;20184;-85
2022/03/23 06:49:20;;;;;;;21.17;14.15;;;;;;;;;;7383002;19;20207;-86
2022/03/23 06:51:50;;;;;;;26.85;14.55;;;;;;;;;;7371045;19;20225;-80
2022/03/23 06:54:20;;;;;;;21.10;13.60;;;;;;;;;;7374208;19;20231;-81
2022/03/23 06:56:52;;;;;;;23.27;14.13;;;;;;;;;;7374043;19;20163;-81
2022/03/23 06:59:21;;;;;;;24.88;13.50;;;;;;;;;;7379017;19;20202;-81
2022/03/23 07:01:51;;;;;;;21.67;14.20;;;;;;;;;;7374703;19;20138;-82
2022/03/23 07:04:24;;;;;;;19.92;13.30;;;;;;;;;;7378014;19;20157;-82
2022/03/23 07:06:54;;;;;;;20.20;14.13;;;;;;;;;;7375720;19;20131;-82
2022/03/23 07:09:34;;;;;;;21.17;12.90;;;;;;;;;;7368919;19;20712;-82
2022/03/23 07:12:08;;;;;;;27.95;15.32;;;;;;;;;;7365493;19;20143;-82
2022/03/23 07:14:39;;;;;;;24.80;15.90;;;;;;;;;;7374803;19;20135;-82
2022/03/23 07:17:09;;;;;;;19.77;14.37;;;;;;;;;;7372361;19;20139;-82
2022/03/23 07:19:39;;;;;;;21.80;15.10;;;;;;;;;;7373942;19;20396;-82
2022/03/23 07:22:08;;;;;;;24.43;15.20;;;;;;;;;;7372833;19;20424;-83
2022/03/23 07:24:38;;;;;;;28.20;17.63;;;;;;;;;;7377497;19;21635;-82
2022/03/23 07:27:10;;;;;;;27.73;16.50;;;;;;;;;;7366271;19;20455;-76
2022/03/23 07:29:40;;;;;;;22.10;13.90;;;;;;;;;;7374829;19;20424;-79
2022/03/23 07:32:10;;;;;;;21.20;14.60;;;;;;;;;;7371400;19;20928;-79
2022/03/23 07:34:39;;;;;;;22.53;13.63;;;;;;;;;;7370737;19;20927;-79
2022/03/23 07:37:09;;;;;;;32.67;17.73;;;;;;;;;;7373551;19;20402;-80
2022/03/23 07:39:39;;;;;;;51.90;25.50;;;;;;;;;;7369226;19;20970;-81
2022/03/23 07:42:11;;;;;;;45.20;21.97;;;;;;;;;;7362927;19;20507;-78
2022/03/23 07:44:41;;;;;;;27.27;17.37;;;;;;;;;;7378982;19;20443;-78
2022/03/23 07:47:13;;;;;;;24.07;16.63;;;;;;;;;;7374463;19;20454;-79
2022/03/23 07:49:43;;;;;;;23.73;15.63;;;;;;;;;;7373412;19;21234;-81
2022/03/23 07:52:13;;;;;;;22.87;15.63;;;;;;;;;;7376326;19;20443;-80
2022/03/23 07:54:43;;;;;;;25.67;15.00;;;;;;;;;;7379876;19;20419;-83
2022/03/23 07:57:15;;;;;;;21.60;15.20;;;;;;;;;;7364004;19;20968;-80
2022/03/23 07:59:45;;;;;;;26.60;17.87;;;;;;;;;;7368505;19;20403;-82
2022/03/23 08:02:15;;;;;;;21.17;15.00;;;;;;;;;;7359946;19;20400;-80
2022/03/23 08:04:44;;;;;;;20.23;16.07;;;;;;;;;;7371984;19;21637;-80
2022/03/23 08:07:14;;;;;;;21.27;16.13;;;;;;;;;;7417349;19;20409;-82
2022/03/23 08:09:43;;;;;;;26.17;18.50;;;;;;;;;;7411590;19;20400;-81
2022/03/23 08:12:16;;;;;;;26.50;16.60;;;;;;;;;;7403804;19;20426;-78
2022/03/23 08:14:47;;;;;;;25.40;17.37;;;;;;;;;;7409876;19;21114;-81
2022/03/23 08:17:16;;;;;;;24.43;17.87;;;;;;;;;;7399651;19;20421;-81
2022/03/23 08:20:32;;;;;;;22.33;16.50;;;;;;;;;;7410676;19;20957;-81
2022/03/23 08:22:39;;;;;;;22.00;16.43;;;;;;;;;;7417564;19;20511;-82
2022/03/23 08:25:09;;;;;;;23.33;16.67;;;;;;;;;;7428740;19;20408;-82
2022/03/23 08:27:41;;;;;;;23.40;17.50;;;;;;;;;;7426742;19;20395;-81
2022/03/23 08:30:11;;;;;;;26.10;17.80;;;;;;;;;;7428198;19;20393;-81
2022/03/23 08:32:40;;;;;;;25.30;17.10;;;;;;;;;;7432971;19;20433;-81
2022/03/23 08:35:11;;;;;;;22.77;17.10;;;;;;;;;;7429645;19;20413;-81
2022/03/23 08:37:41;;;;;;;21.67;16.87;;;;;;;;;;7416020;19;20447;-78
2022/03/23 08:40:11;;;;;;;23.40;16.63;;;;;;;;;;7416984;19;20880;-81
2022/03/23 08:42:43;;;;;;;23.53;17.57;;;;;;;;;;7399243;19;20908;-81
2022/03/23 08:45:15;;;;;;;20.13;15.97;;;;;;;;;;7392546;19;20376;-81
2022/03/23 08:47:45;;;;;;;25.30;17.53;;;;;;;;;;7386277;19;20420;-81
2022/03/23 08:50:15;;;;;;;23.63;18.37;;;;;;;;;;7383947;19;20376;-81
2022/03/23 08:52:45;;;;;;;25.70;19.60;;;;;;;;;;7385361;19;20982;-81
2022/03/23 08:55:19;;;;;;;21.37;17.67;;;;;;;;;;7376187;19;20443;-80
2022/03/23 08:57:51;;;;;;;21.57;17.47;;;;;;;;;;7377050;19;20368;-81
2022/03/23 09:00:24;;;;;;;19.10;17.20;;;;;;;;;;7380413;19;20412;-81
2022/03/23 09:02:53;;;;;;;23.70;18.90;;;;;;;;;;7380639;19;20911;-81
2022/03/23 09:05:23;;;;;;;21.30;18.17;;;;;;;;;;7378163;19;20487;-78
2022/03/23 09:07:53;;;;;;;24.70;19.00;;;;;;;;;;7378568;19;20384;-79
2022/03/23 09:10:23;;;;;;;21.60;18.63;;;;;;;;;;7372600;19;20408;-78
2022/03/23 09:12:55;;;;;;;19.10;17.03;;;;;;;;;;7378548;19;20891;-78
2022/03/23 09:15:25;;;;;;;19.80;17.13;;;;;;;;;;7378087;19;21025;-78
2022/03/23 09:17:54;;;;;;;19.33;17.33;;;;;;;;;;7377472;19;20399;-78
2022/03/23 09:20:28;;;;;;;20.10;17.00;;;;;;;;;;7370433;19;20419;-78
2022/03/23 09:22:57;;;;;;;20.67;17.97;;;;;;;;;;7382059;19;21345;-79
2022/03/23 09:25:27;;;;;;;19.60;17.50;;;;;;;;;;7371634;19;20388;-79
2022/03/23 09:27:59;;;;;;;19.40;17.40;;;;;;;;;;7379877;19;20947;-79
2022/03/23 09:30:29;;;;;;;21.87;19.53;;;;;;;;;;7376143;19;20483;-75
2022/03/23 09:33:00;;;;;;;20.00;17.90;;;;;;;;;;7372700;19;20409;-77
2022/03/23 09:35:30;;;;;;;19.37;16.87;;;;;;;;;;7369902;19;20376;-77
2022/03/23 09:38:03;;;;;;;22.93;18.47;;;;;;;;;;7377097;19;20392;-77
2022/03/23 09:40:34;;;;;;;22.03;17.83;;;;;;;;;;7374952;19;20463;-77
2022/03/23 09:43:08;;;;;;;19.17;17.17;;;;;;;;;;7379430;19;20369;-77
2022/03/23 09:45:46;;;;;;;20.63;18.43;;;;;;;;;;7380852;19;20412;-77
2022/03/23 09:48:17;;;;;;;25.03;18.73;;;;;;;;;;7376294;19;20407;-77
2022/03/23 09:50:47;;;;;;;21.77;19.30;;;;;;;;;;7381277;19;20390;-77
2022/03/23 09:53:19;;;;;;;20.97;18.87;;;;;;;;;;7377791;19;20404;-76
2022/03/23 09:55:49;;;;;;;22.90;17.97;;;;;;;;;;7380108;19;20444;-77
2022/03/23 09:58:21;;;;;;;20.97;18.87;;;;;;;;;;7380133;19;20447;-77
2022/03/23 10:00:53;;;;;;;19.47;17.43;;;;;;;;;;7379100;19;20417;-77
2022/03/23 10:03:56;;;;;;;19.80;17.70;;;;;;;;;;7378131;19;21100;-76
2022/03/23 10:06:53;;;;;;;19.73;17.83;;;;;;;;;;7378601;19;20412;-77
2022/03/23 10:09:42;;;;;;;18.93;16.70;;;;;;;;;;7376989;19;20379;-76
2022/03/23 10:12:35;;;;;;;16.57;14.97;;;;;;;;;;7380038;19;21841;-77
2022/03/23 10:15:29;;;;;;;19.33;16.73;;;;;;;;;;7374864;19;20427;-77
2022/03/23 10:18:15;;;;;;;19.80;16.50;;;;;;;;;;7377230;19;20397;-76
2022/03/23 10:20:47;;;;;;;18.13;16.20;;;;;;;;;;7382482;19;20412;-77
2022/03/23 10:23:22;;;;;;;19.40;16.03;;;;;;;;;;7377678;19;20364;-77
2022/03/23 10:25:55;;;;;;;17.63;15.87;;;;;;;;;;7378450;19;20384;-77
2022/03/23 10:28:25;;;;;;;15.93;14.50;;;;;;;;;;7376047;19;20377;-77
2022/03/23 10:30:54;;;;;;;16.37;14.97;;;;;;;;;;7380181;19;20408;-78
2022/03/23 10:33:26;;;;;;;15.23;13.37;;;;;;;;;;7375763;19;21024;-78
2022/03/23 10:36:04;;;;;;;16.77;13.57;;;;;;;;;;7377997;19;20466;-78
2022/03/23 10:38:40;;;;;;;15.50;14.20;;;;;;;;;;7378276;19;20443;-78
2022/03/23 10:41:14;;;;;;;14.33;12.83;;;;;;;;;;7376340;19;20376;-78
2022/03/23 10:43:46;;;;;;;13.23;11.93;;;19.90;21.60;;;;;;7377282;19;20404;-77
2022/03/23 10:46:18;;;;;;;13.10;11.80;;;39.00;11.40;;;;;;7376830;19;20364;-76
2022/03/23 10:48:58;;;;;;;13.80;12.60;;;38.60;10.40;;;;;;7373382;19;20412;-77
2022/03/23 10:51:33;;;;;;;15.60;13.27;;;38.80;10.60;;;;;;7376007;19;20762;-77
2022/03/23 10:54:16;;;;;;;12.50;11.50;;;38.70;10.90;;;;;;7377978;19;20421;-77
2022/03/23 10:56:50;;;;;;;13.60;12.33;;;39.00;10.60;;;;;;7375323;19;20440;-76
2022/03/23 10:59:25;;;;;;;13.00;11.80;;;39.90;10.70;;;;;;7373116;19;20448;-77
2022/03/23 11:02:02;;;;;;;12.83;11.63;;;39.60;10.20;;;;;;7374068;19;20380;-77
2022/03/23 11:04:47;;;;;;;12.53;11.23;;;40.40;10.00;;;;;;7372251;19;20411;-77
2022/03/23 11:07:30;;;;;;;11.53;10.50;;;41.00;9.90;;;;;;7373534;19;20408;-77
2022/03/23 11:15:51;;;;;;;10.87;9.87;;;39.60;9.00;;;;;;7396975;19;20445;-75
2022/03/23 11:18:23;;;;;;;12.13;11.03;;;40.40;9.40;;;;;;7408886;19;20388;-82
2022/03/23 11:20:56;;;;;;;11.67;10.33;;;41.10;9.40;;;;;;7417135;19;20416;-81
2022/03/23 11:23:30;;;;;;;12.17;11.00;;;41.80;9.20;;;;;;7417437;19;20432;-81
2022/03/23 11:26:04;;;;;;;11.17;10.07;;;42.10;9.30;;;;;;7411178;19;20396;-81
2022/03/23 11:28:36;;;;;;;10.63;9.77;;;42.40;8.90;;;;;;7417262;19;20372;-79
2022/03/23 11:31:09;;;;;;;12.80;11.60;;;42.10;9.60;;;;;;7411866;19;20404;-77
2022/03/23 11:33:39;;;;;;;13.07;11.87;;;42.30;9.20;;;;;;7412708;19;20368;-77
2022/03/23 11:36:16;;;;;;;12.13;11.00;;;41.80;9.20;;;;;;7423609;19;20391;-77
2022/03/23 11:38:51;;;;;;;16.77;11.67;;;40.90;9.60;;;;;;7426904;19;20412;-78
2022/03/23 11:41:22;;;;;;;12.17;10.87;;;40.80;9.60;;;;;;7394982;19;20809;-78
2022/03/23 11:43:51;;;;;;;13.10;11.30;;;41.60;9.20;;;;;;7392205;19;20763;-79
2022/03/23 11:46:23;;;;;;;14.10;10.30;;;42.80;9.00;;;;;;7386233;19;20516;-78
2022/03/23 11:49:02;;;;;;;10.17;8.50;;;42.40;8.60;;;;;;7385041;19;20841;-77
2022/03/23 11:51:55;;;;;;;10.50;9.47;;;42.20;8.30;;;;;;7384083;19;20428;-77
2022/03/23 11:55:37;;;;;;;10.07;9.17;;;42.10;8.40;;;;;;7383317;19;20439;-78
2022/03/23 11:58:06;;;;;;;11.20;9.57;;;42.40;8.80;;;;;;7383339;19;20399;-78
2022/03/23 12:00:44;;;;;;;9.90;9.00;;;42.20;8.80;;;;;;7373080;19;20476;-77
2022/03/23 12:03:16;;;;;;;11.43;10.33;;;43.00;8.60;;;;;;7378452;19;20416;-79
2022/03/23 12:05:54;;;;;;;10.57;9.67;;;42.80;8.50;;;;;;7383572;19;20416;-76
2022/03/23 12:08:50;;;;;;;11.50;10.50;;;42.60;8.60;;;;;;7368621;19;20844;-78
2022/03/23 12:11:51;;;;;;;11.30;10.10;;;43.50;8.90;;;;;;7368591;19;20416;-78
2022/03/23 12:14:28;;;;;;;11.10;10.20;;;42.80;8.50;;;;;;7376166;19;20490;-78
2022/03/23 12:17:12;;;;;;;11.67;10.57;;;42.50;8.90;;;;;;7378671;19;20408;-76
2022/03/23 12:19:58;;;;;;;11.40;10.40;;;40.80;9.10;;;;;;7373730;19;20399;-79
2022/03/23 12:23:01;;;;;;;13.27;12.00;;;40.30;9.30;;;;;;7383407;19;20502;-79
2022/03/23 12:25:48;;;;;;;11.87;10.77;;;41.30;9.30;;;;;;7379597;19;20410;-79
2022/03/23 12:28:28;;;;;;;11.53;10.53;;;42.00;8.80;;;;;;7377906;19;20412;-79
2022/03/23 12:31:14;;;;;;;11.27;10.10;;;42.20;8.90;;;;;;7370340;19;20408;-80
2022/03/23 12:34:09;;;;;;;9.80;8.80;;;43.10;8.80;;;;;;7379045;19;21781;-80
2022/03/23 12:39:27;;;;;;;10.33;9.43;;;43.00;8.50;;;;;;7374243;19;20383;-79
2022/03/23 12:42:00;;;;;;;11.03;10.03;;;43.40;8.60;;;;;;7380783;19;20388;-80
2022/03/23 12:44:32;;;;;;;10.00;9.10;;;43.10;8.50;;;;;;7380321;19;20447;-79
2022/03/23 12:47:13;;;;;;;10.70;9.73;;;42.00;8.90;;;;;;7378988;19;20400;-80
2022/03/23 12:58:04;;;;;;;11.60;10.60;;;41.00;9.10;;;;;;7372987;19;20413;-79
2022/03/23 13:00:37;;;;;;;9.90;8.90;;;41.60;9.20;;;;;;7381093;19;20388;-78
2022/03/23 13:03:57;;;;;;;10.03;9.20;;;41.70;9.00;;;;;;7374714;19;20910;-80
2022/03/23 13:06:39;;;;;;;13.30;10.60;;;42.10;8.70;;;;;;7370850;19;20482;-81
2022/03/23 13:09:27;;;;;;;11.50;10.30;;;41.90;9.00;;;;;;7377032;19;20408;-78
2022/03/23 13:12:00;;;;;;;11.60;10.50;;;42.00;9.10;;;;;;7374524;19;20435;-78
2022/03/23 13:14:30;;;;;;;10.90;9.80;;;42.00;8.80;;;;;;7374006;19;20424;-78
2022/03/23 13:17:00;;;;;;;11.60;10.60;;;41.20;9.00;;;;;;7338642;19;21460;-79
2022/03/23 13:19:32;;;;;;;12.43;11.33;;;40.80;9.10;;;;;;7375520;19;20754;-79
2022/03/23 13:22:02;;;;;;;11.33;10.33;;;39.80;9.80;;;;;;7373535;19;20986;-79
2022/03/23 13:24:31;;;;;;;11.53;10.53;;;39.00;9.70;;;;;;7370732;19;20518;-79
2022/03/23 13:27:13;;;;;;;13.23;12.13;;;39.30;9.60;;;;;;7374081;19;21242;-80
2022/03/23 13:29:42;;;;;;;11.47;10.30;;;39.50;9.70;;;;;;7378636;19;20383;-76
2022/03/23 13:32:12;;;;;;;12.57;10.90;;;38.90;10.00;;;;;;7380452;19;20412;-75
2022/03/23 13:34:55;;;;;;;25.77;18.03;;;38.80;10.60;;;;;;7380670;19;20376;-76
2022/03/23 13:37:25;;;;;;;10.50;9.40;;;38.80;10.90;;;;;;7381247;19;20916;-75
2022/03/23 13:39:54;;;;;;;11.70;10.70;;;38.50;9.80;;;;;;7379631;19;20912;-76
2022/03/23 13:45:09;;;;;;;11.60;10.57;;;38.20;10.10;;;;;;7378473;19;20416;-76
2022/03/23 13:47:40;;;;;;;11.00;10.00;;;37.80;10.20;;;;;;7376858;19;20769;-76
2022/03/23 13:50:16;;;;;;;10.43;9.40;;;36.90;10.50;;;;;;7376677;19;20397;-76
2022/03/23 13:52:45;;;;;;;10.63;9.57;;;37.10;10.00;;;;;;7376997;19;20395;-76
2022/03/23 13:55:16;;;;;;;9.50;8.60;;;36.50;9.70;;;;;;7368874;19;21042;-76
2022/03/23 13:57:48;;;;;;;9.77;8.83;;;36.10;10.00;;;;;;7374494;19;20388;-74
2022/03/23 14:00:25;;;;;;;11.37;10.30;;;35.90;10.10;;;;;;7403066;19;20411;-81
2022/03/23 14:02:57;;;;;;;12.90;10.57;;;35.90;10.40;;;;;;7415088;19;20532;-81
2022/03/23 14:05:33;;;;;;;11.37;10.27;;;35.50;10.80;;;;;;7419748;19;20411;-80
2022/03/23 14:08:05;;;;;;;11.23;9.83;;;34.80;11.30;;;;;;7416768;19;20426;-80
2022/03/23 14:10:36;;;;;;;10.30;9.40;;;34.90;11.30;;;;;;7416126;19;20437;-80
2022/03/23 14:13:13;;;;;;;10.43;9.50;;;34.50;11.60;;;;;;7423226;19;20449;-79
2022/03/23 14:15:53;;;;;;;10.17;9.17;;;34.30;10.90;;;;;;7425161;19;20392;-80
2022/03/23 14:18:28;;;;;;;10.63;9.67;;;34.00;11.20;;;;;;7424353;19;20906;-80
2022/03/23 14:21:01;;;;;;;11.97;10.13;;;33.90;11.60;;;;;;7428123;19;20417;-82
2022/03/23 14:23:34;;;;;;;10.53;9.57;;;33.50;11.50;;;;;;7416575;19;20392;-77
2022/03/23 14:26:32;;;;;;;12.17;11.07;;;33.50;11.50;;;;;;7411490;19;20433;-75
2022/03/23 14:29:02;;;;;;;12.93;11.73;;;33.10;11.90;;;;;;7387895;19;20447;-77
2022/03/23 14:31:32;;;;;;;11.67;10.47;;;32.30;12.30;;;;;;7386823;19;20395;-77
2022/03/23 14:34:08;;;;;;;12.50;11.30;;;31.60;12.60;;;;;;7384740;19;20432;-76
2022/03/23 14:36:40;;;;;;;12.50;11.50;;;30.40;13.60;;;;;;7379213;19;21285;-77
2022/03/23 14:39:22;;;;;;;13.20;11.60;;;28.90;14.30;;;;;;7379996;19;20416;-76
2022/03/23 14:41:58;;;;;;;11.57;10.47;;;27.90;15.30;;;;;;7377554;19;20404;-77
2022/03/23 14:44:37;;;;;;;11.73;10.63;;;27.00;15.50;;;;;;7378702;19;20956;-76
2022/03/23 14:47:09;;;;;;;11.93;10.73;;;25.60;16.30;;;;;;7379937;19;20430;-76
2022/03/23 14:49:41;;;;;;;11.57;10.37;;;24.80;16.80;;;;;;7376697;19;20412;-77
2022/03/23 14:52:15;;;;;;;15.03;10.97;;;24.50;16.70;;;;;;7381795;19;20412;-76
2022/03/23 14:54:45;;;;;;;12.27;10.90;;;24.30;16.90;;;;;;7383005;19;20439;-76
2022/03/23 14:57:16;;;;;;;21.33;11.27;;;24.20;17.20;;;;;;7380712;19;21295;-76
2022/03/23 14:59:52;;;;;;;13.50;10.53;;;23.90;17.40;;;;;;7382831;19;20420;-76
2022/03/23 15:02:22;;;;;;;15.17;11.00;;;23.60;17.80;;;;;;7387161;19;20435;-75
2022/03/23 15:04:51;;;;;;;15.73;11.20;;;23.40;17.90;;;;;;7386622;19;20432;-75